sensor_id;sensor_type;location;lat;lon;timestamp;pressure;altitude;pressure_sealevel;temperature;humidity
2294;BME280;1155;42.644;23.264;2023-03-25T00:00:10;60068.88;;;-140.67;100.00
2294;BME280;1155;42.644;23.264;2023-03-25T00:02:39;60064.78;;;-140.67;100.00
2294;BME280;1155;42.644;23.264;2023-03-25T00:05:07;60095.50;;;-140.67;100.00
2294;BME280;1155;42.644;23.264;2023-03-25T00:07:36;60048.41;;;-140.67;100.00
2294;BME280;1155;42.644;23.264;2023-03-25T00:10:04;60087.31;;;-140.67;100.00
2294;BME280;1155;42.644;23.264;2023-03-25T00:12:30;60058.66;;;-140.67;100.00
2294;BME280;1155;42.644;23.264;2023-03-25T00:14:57;60068.88;;;-140.67;100.00
2294;BME280;1155;42.644;23.264;2023-03-25T00:17:25;60036.13;;;-140.67;100.00
2294;BME280;1155;42.644;23.264;2023-03-25T00:19:53;60073.00;;;-140.67;100.00
2294;BME280;1155;42.644;23.264;2023-03-25T00:22:20;60075.03;;;-140.67;100.00
2294;BME280;1155;42.644;23.264;2023-03-25T00:24:49;60044.31;;;-140.67;100.00
2294;BME280;1155;42.644;23.264;2023-03-25T00:27:16;60056.59;;;-140.67;100.00
2294;BME280;1155;42.644;23.264;2023-03-25T00:29:45;60064.78;;;-140.67;100.00
2294;BME280;1155;42.644;23.264;2023-03-25T00:32:14;60064.78;;;-140.67;100.00
2294;BME280;1155;42.644;23.264;2023-03-25T00:34:41;60064.78;;;-140.67;100.00
2294;BME280;1155;42.644;23.264;2023-03-25T00:37:12;60073.00;;;-140.67;100.00
2294;BME280;1155;42.644;23.264;2023-03-25T00:39:42;60036.13;;;-140.67;100.00
2294;BME280;1155;42.644;23.264;2023-03-25T00:42:11;60062.75;;;-140.67;100.00
2294;BME280;1155;42.644;23.264;2023-03-25T00:44:40;60044.31;;;-140.67;100.00
2294;BME280;1155;42.644;23.264;2023-03-25T00:47:08;60054.56;;;-140.67;100.00
2294;BME280;1155;42.644;23.264;2023-03-25T00:49:36;60068.88;;;-140.67;100.00
2294;BME280;1155;42.644;23.264;2023-03-25T00:52:03;60105.75;;;-140.67;100.00
2294;BME280;1155;42.644;23.264;2023-03-25T00:54:30;60081.19;;;-140.67;100.00
2294;BME280;1155;42.644;23.264;2023-03-25T00:56:58;60062.75;;;-140.67;100.00
2294;BME280;1155;42.644;23.264;2023-03-25T00:59:26;60068.88;;;-140.67;100.00
2294;BME280;1155;42.644;23.264;2023-03-25T01:01:53;60068.88;;;-140.67;100.00
2294;BME280;1155;42.644;23.264;2023-03-25T01:04:20;60068.88;;;-140.67;100.00
2294;BME280;1155;42.644;23.264;2023-03-25T01:06:47;60062.75;;;-140.67;100.00
2294;BME280;1155;42.644;23.264;2023-03-25T01:09:18;60058.66;;;-140.67;100.00
2294;BME280;1155;42.644;23.264;2023-03-25T01:11:46;60081.19;;;-140.67;100.00
2294;BME280;1155;42.644;23.264;2023-03-25T01:14:16;60056.59;;;-140.67;100.00
2294;BME280;1155;42.644;23.264;2023-03-25T01:16:45;60068.88;;;-140.67;100.00
2294;BME280;1155;42.644;23.264;2023-03-25T01:19:12;60077.09;;;-140.67;100.00
2294;BME280;1155;42.644;23.264;2023-03-25T01:21:39;60089.38;;;-140.67;100.00
2294;BME280;1155;42.644;23.264;2023-03-25T01:24:09;60068.88;;;-140.67;100.00
2294;BME280;1155;42.644;23.264;2023-03-25T01:26:37;60046.38;;;-140.67;100.00
2294;BME280;1155;42.644;23.264;2023-03-25T01:29:05;60075.03;;;-140.67;100.00
2294;BME280;1155;42.644;23.264;2023-03-25T01:31:32;60079.13;;;-140.67;100.00
2294;BME280;1155;42.644;23.264;2023-03-25T01:34:00;60099.59;;;-140.67;100.00
2294;BME280;1155;42.644;23.264;2023-03-25T01:36:27;60093.47;;;-140.67;100.00
2294;BME280;1155;42.644;23.264;2023-03-25T01:38:55;60040.22;;;-140.67;100.00
2294;BME280;1155;42.644;23.264;2023-03-25T01:41:22;60068.88;;;-140.67;100.00
2294;BME280;1155;42.644;23.264;2023-03-25T01:44:04;60060.69;;;-140.67;100.00
2294;BME280;1155;42.644;23.264;2023-03-25T01:46:31;60058.66;;;-140.67;100.00
2294;BME280;1155;42.644;23.264;2023-03-25T01:49:01;60064.78;;;-140.67;100.00
2294;BME280;1155;42.644;23.264;2023-03-25T01:51:30;60068.88;;;-140.67;100.00
2294;BME280;1155;42.644;23.264;2023-03-25T01:53:58;60052.50;;;-140.67;100.00
2294;BME280;1155;42.644;23.264;2023-03-25T01:56:28;60038.19;;;-140.67;100.00
2294;BME280;1155;42.644;23.264;2023-03-25T01:58:57;60052.50;;;-140.67;100.00
2294;BME280;1155;42.644;23.264;2023-03-25T02:01:24;60056.59;;;-140.67;100.00
2294;BME280;1155;42.644;23.264;2023-03-25T02:03:53;60068.88;;;-140.67;100.00
2294;BME280;1155;42.644;23.264;2023-03-25T02:06:32;60060.69;;;-140.67;100.00
2294;BME280;1155;42.644;23.264;2023-03-25T02:09:02;60064.78;;;-140.67;100.00
2294;BME280;1155;42.644;23.264;2023-03-25T02:11:31;60044.31;;;-140.67;100.00
2294;BME280;1155;42.644;23.264;2023-03-25T02:14:01;60060.69;;;-140.67;100.00
2294;BME280;1155;42.644;23.264;2023-03-25T02:16:33;60089.38;;;-140.67;100.00
2294;BME280;1155;42.644;23.264;2023-03-25T02:19:38;60073.00;;;-140.67;100.00
2294;BME280;1155;42.644;23.264;2023-03-25T02:22:28;60060.69;;;-140.67;100.00
2294;BME280;1155;42.644;23.264;2023-03-25T02:25:30;60077.09;;;-140.67;100.00
2294;BME280;1155;42.644;23.264;2023-03-25T02:28:08;60068.88;;;-140.67;100.00
2294;BME280;1155;42.644;23.264;2023-03-25T02:30:50;60093.47;;;-140.67;100.00
2294;BME280;1155;42.644;23.264;2023-03-25T02:39:27;60085.28;;;-140.67;100.00
2294;BME280;1155;42.644;23.264;2023-03-25T02:42:03;60056.59;;;-140.67;100.00
2294;BME280;1155;42.644;23.264;2023-03-25T02:44:34;60068.88;;;-140.67;100.00
2294;BME280;1155;42.644;23.264;2023-03-25T02:47:07;60036.13;;;-140.67;100.00
2294;BME280;1155;42.644;23.264;2023-03-25T02:49:37;60056.59;;;-140.67;100.00
2294;BME280;1155;42.644;23.264;2023-03-25T02:52:08;60070.94;;;-140.67;100.00
2294;BME280;1155;42.644;23.264;2023-03-25T02:54:39;60064.78;;;-140.67;100.00
2294;BME280;1155;42.644;23.264;2023-03-25T02:57:08;60060.69;;;-140.67;100.00
2294;BME280;1155;42.644;23.264;2023-03-25T02:59:37;60077.09;;;-140.67;100.00
2294;BME280;1155;42.644;23.264;2023-03-25T03:02:07;60081.19;;;-140.67;100.00
2294;BME280;1155;42.644;23.264;2023-03-25T03:04:44;60044.31;;;-140.67;100.00
2294;BME280;1155;42.644;23.264;2023-03-25T03:07:16;60052.50;;;-140.67;100.00
2294;BME280;1155;42.644;23.264;2023-03-25T03:09:49;60064.78;;;-140.67;100.00
2294;BME280;1155;42.644;23.264;2023-03-25T03:12:30;60089.38;;;-140.67;100.00
2294;BME280;1155;42.644;23.264;2023-03-25T03:15:08;60060.69;;;-140.67;100.00
2294;BME280;1155;42.644;23.264;2023-03-25T03:17:42;60064.78;;;-140.67;100.00
2294;BME280;1155;42.644;23.264;2023-03-25T03:20:18;60052.50;;;-140.67;100.00
2294;BME280;1155;42.644;23.264;2023-03-25T03:22:53;60060.69;;;-140.67;100.00
2294;BME280;1155;42.644;23.264;2023-03-25T03:25:27;60087.31;;;-140.67;100.00
2294;BME280;1155;42.644;23.264;2023-03-25T03:28:02;60081.19;;;-140.67;100.00
2294;BME280;1155;42.644;23.264;2023-03-25T03:30:36;60048.41;;;-140.67;100.00
2294;BME280;1155;42.644;23.264;2023-03-25T03:33:10;60073.00;;;-140.67;100.00
2294;BME280;1155;42.644;23.264;2023-03-25T03:35:43;60070.94;;;-140.67;100.00
2294;BME280;1155;42.644;23.264;2023-03-25T03:38:16;60081.19;;;-140.67;100.00
2294;BME280;1155;42.644;23.264;2023-03-25T03:40:50;60056.59;;;-140.67;100.00
2294;BME280;1155;42.644;23.264;2023-03-25T03:43:23;60089.38;;;-140.67;100.00
2294;BME280;1155;42.644;23.264;2023-03-25T03:45:54;60073.00;;;-140.67;100.00
2294;BME280;1155;42.644;23.264;2023-03-25T03:48:26;60083.22;;;-140.67;100.00
2294;BME280;1155;42.644;23.264;2023-03-25T03:50:57;60087.31;;;-140.67;100.00
2294;BME280;1155;42.644;23.264;2023-03-25T03:53:30;60068.88;;;-140.67;100.00
2294;BME280;1155;42.644;23.264;2023-03-25T03:56:03;60095.50;;;-140.67;100.00
2294;BME280;1155;42.644;23.264;2023-03-25T03:58:34;60064.78;;;-140.67;100.00
2294;BME280;1155;42.644;23.264;2023-03-25T04:01:05;60070.94;;;-140.67;100.00
2294;BME280;1155;42.644;23.264;2023-03-25T04:03:39;60087.31;;;-140.67;100.00
2294;BME280;1155;42.644;23.264;2023-03-25T04:06:15;60081.19;;;-140.67;100.00
2294;BME280;1155;42.644;23.264;2023-03-25T04:08:50;60085.28;;;-140.67;100.00
2294;BME280;1155;42.644;23.264;2023-03-25T04:11:26;60085.28;;;-140.67;100.00
2294;BME280;1155;42.644;23.264;2023-03-25T04:13:56;60079.13;;;-140.67;100.00
2294;BME280;1155;42.644;23.264;2023-03-25T04:16:25;60089.38;;;-140.67;100.00
2294;BME280;1155;42.644;23.264;2023-03-25T04:18:53;60097.56;;;-140.67;100.00
2294;BME280;1155;42.644;23.264;2023-03-25T04:21:20;60056.59;;;-140.67;100.00
2294;BME280;1155;42.644;23.264;2023-03-25T04:23:47;60081.19;;;-140.67;100.00
2294;BME280;1155;42.644;23.264;2023-03-25T04:26:16;60085.28;;;-140.67;100.00
2294;BME280;1155;42.644;23.264;2023-03-25T04:28:45;60056.59;;;-140.67;100.00
2294;BME280;1155;42.644;23.264;2023-03-25T04:31:13;60075.03;;;-140.67;100.00
2294;BME280;1155;42.644;23.264;2023-03-25T04:33:41;60095.50;;;-140.67;100.00
2294;BME280;1155;42.644;23.264;2023-03-25T04:36:11;60079.13;;;-140.67;100.00
2294;BME280;1155;42.644;23.264;2023-03-25T04:38:39;60068.88;;;-140.67;100.00
2294;BME280;1155;42.644;23.264;2023-03-25T04:41:10;60091.41;;;-140.67;100.00
2294;BME280;1155;42.644;23.264;2023-03-25T04:43:38;60075.03;;;-140.67;100.00
2294;BME280;1155;42.644;23.264;2023-03-25T04:46:10;60079.13;;;-140.67;100.00
2294;BME280;1155;42.644;23.264;2023-03-25T04:48:38;60083.22;;;-140.67;100.00
2294;BME280;1155;42.644;23.264;2023-03-25T04:51:09;60062.75;;;-140.67;100.00
2294;BME280;1155;42.644;23.264;2023-03-25T04:53:37;60073.00;;;-140.67;100.00
2294;BME280;1155;42.644;23.264;2023-03-25T04:56:05;60093.47;;;-140.67;100.00
2294;BME280;1155;42.644;23.264;2023-03-25T04:58:37;60060.69;;;-140.67;100.00
2294;BME280;1155;42.644;23.264;2023-03-25T05:01:07;60060.69;;;-140.67;100.00
2294;BME280;1155;42.644;23.264;2023-03-25T05:03:36;60068.88;;;-140.67;100.00
2294;BME280;1155;42.644;23.264;2023-03-25T05:06:05;60077.09;;;-140.67;100.00
2294;BME280;1155;42.644;23.264;2023-03-25T05:08:33;60081.19;;;-140.67;100.00
2294;BME280;1155;42.644;23.264;2023-03-25T05:11:00;60085.28;;;-140.67;100.00
2294;BME280;1155;42.644;23.264;2023-03-25T05:13:27;60068.88;;;-140.67;100.00
2294;BME280;1155;42.644;23.264;2023-03-25T05:15:54;60070.94;;;-140.67;100.00
2294;BME280;1155;42.644;23.264;2023-03-25T05:18:22;60079.13;;;-140.67;100.00
2294;BME280;1155;42.644;23.264;2023-03-25T05:20:49;60085.28;;;-140.67;100.00
2294;BME280;1155;42.644;23.264;2023-03-25T05:23:18;60048.41;;;-140.67;100.00
2294;BME280;1155;42.644;23.264;2023-03-25T05:25:47;60068.88;;;-140.67;100.00
2294;BME280;1155;42.644;23.264;2023-03-25T05:28:15;60064.78;;;-140.67;100.00
2294;BME280;1155;42.644;23.264;2023-03-25T05:30:43;60079.13;;;-140.67;100.00
2294;BME280;1155;42.644;23.264;2023-03-25T05:33:14;60095.50;;;-140.67;100.00
2294;BME280;1155;42.644;23.264;2023-03-25T05:35:43;60095.50;;;-140.67;100.00
2294;BME280;1155;42.644;23.264;2023-03-25T05:38:11;60081.19;;;-140.67;100.00
2294;BME280;1155;42.644;23.264;2023-03-25T05:40:41;60085.28;;;-140.67;100.00
2294;BME280;1155;42.644;23.264;2023-03-25T05:43:08;60103.69;;;-140.67;100.00
2294;BME280;1155;42.644;23.264;2023-03-25T05:45:35;60075.03;;;-140.67;100.00
2294;BME280;1155;42.644;23.264;2023-03-25T05:48:02;60105.75;;;-140.67;100.00
2294;BME280;1155;42.644;23.264;2023-03-25T05:50:29;60085.28;;;-140.67;100.00
2294;BME280;1155;42.644;23.264;2023-03-25T05:52:57;60070.94;;;-140.67;98.46
2294;BME280;1155;42.644;23.264;2023-03-25T05:55:25;60095.50;;;-140.67;82.36
2294;BME280;1155;42.644;23.264;2023-03-25T05:57:52;60077.09;;;-140.67;74.18
2294;BME280;1155;42.644;23.264;2023-03-25T06:00:19;60095.50;;;-140.67;77.71
2294;BME280;1155;42.644;23.264;2023-03-25T06:02:47;60073.00;;;-140.67;73.19
2294;BME280;1155;42.644;23.264;2023-03-25T06:05:15;60083.22;;;-140.67;72.76
2294;BME280;1155;42.644;23.264;2023-03-25T06:07:44;60068.88;;;-140.67;67.54
2294;BME280;1155;42.644;23.264;2023-03-25T06:10:14;60081.19;;;-140.67;69.57
2294;BME280;1155;42.644;23.264;2023-03-25T06:12:42;60085.28;;;-140.67;69.08
2294;BME280;1155;42.644;23.264;2023-03-25T06:15:11;60081.19;;;-140.67;71.24
2294;BME280;1155;42.644;23.264;2023-03-25T06:17:39;60073.00;;;-140.67;68.84
2294;BME280;1155;42.644;23.264;2023-03-25T06:20:08;60097.56;;;-140.67;67.78
2294;BME280;1155;42.644;23.264;2023-03-25T06:22:37;60089.38;;;-140.67;61.32
2294;BME280;1155;42.644;23.264;2023-03-25T06:25:06;60052.50;;;-140.67;58.33
2294;BME280;1155;42.644;23.264;2023-03-25T06:27:34;60081.19;;;-140.67;56.15
2294;BME280;1155;42.644;23.264;2023-03-25T06:30:06;60093.47;;;-140.67;57.14
2294;BME280;1155;42.644;23.264;2023-03-25T06:32:34;60077.09;;;-140.67;56.42
2294;BME280;1155;42.644;23.264;2023-03-25T06:35:01;60062.75;;;-140.67;55.71
2294;BME280;1155;42.644;23.264;2023-03-25T06:37:28;60052.50;;;-140.67;58.30
2294;BME280;1155;42.644;23.264;2023-03-25T06:39:55;60079.13;;;-140.67;58.02
2294;BME280;1155;42.644;23.264;2023-03-25T06:42:24;60066.84;;;-140.67;56.33
2294;BME280;1155;42.644;23.264;2023-03-25T06:44:52;60085.28;;;-140.67;52.30
2294;BME280;1155;42.644;23.264;2023-03-25T06:47:20;60097.56;;;-140.67;50.88
2294;BME280;1155;42.644;23.264;2023-03-25T06:49:47;60068.88;;;-140.67;53.61
2294;BME280;1155;42.644;23.264;2023-03-25T06:52:14;60091.41;;;-140.67;55.39
2294;BME280;1155;42.644;23.264;2023-03-25T06:54:41;60081.19;;;-140.67;55.97
2294;BME280;1155;42.644;23.264;2023-03-25T06:57:08;60068.88;;;-140.67;52.18
2294;BME280;1155;42.644;23.264;2023-03-25T06:59:35;60085.28;;;-140.67;52.14
2294;BME280;1155;42.644;23.264;2023-03-25T07:02:03;60099.59;;;-140.67;47.61
2294;BME280;1155;42.644;23.264;2023-03-25T07:04:30;60081.19;;;-140.67;48.81
2294;BME280;1155;42.644;23.264;2023-03-25T07:06:57;60064.78;;;-140.67;51.57
2294;BME280;1155;42.644;23.264;2023-03-25T07:09:23;60066.84;;;-140.67;47.92
2294;BME280;1155;42.644;23.264;2023-03-25T07:11:50;60083.22;;;-140.67;51.47
2294;BME280;1155;42.644;23.264;2023-03-25T07:14:17;60111.91;;;-140.67;48.95
2294;BME280;1155;42.644;23.264;2023-03-25T07:16:44;60087.31;;;-140.67;48.71
2294;BME280;1155;42.644;23.264;2023-03-25T07:19:12;60089.38;;;-140.67;46.24
2294;BME280;1155;42.644;23.264;2023-03-25T07:21:39;60097.56;;;-140.67;44.44
2294;BME280;1155;42.644;23.264;2023-03-25T07:24:06;60101.66;;;-140.67;44.51
2294;BME280;1155;42.644;23.264;2023-03-25T07:26:33;60099.59;;;-140.67;46.48
2294;BME280;1155;42.644;23.264;2023-03-25T07:28:59;60107.78;;;-140.67;44.80
2294;BME280;1155;42.644;23.264;2023-03-25T07:31:28;60085.28;;;-140.67;44.17
2294;BME280;1155;42.644;23.264;2023-03-25T07:33:54;60081.19;;;-140.67;45.83
2294;BME280;1155;42.644;23.264;2023-03-25T07:36:25;60113.94;;;-140.67;44.53
2294;BME280;1155;42.644;23.264;2023-03-25T07:38:51;60085.28;;;-140.67;43.32
2294;BME280;1155;42.644;23.264;2023-03-25T07:41:18;60091.41;;;-140.67;41.81
2294;BME280;1155;42.644;23.264;2023-03-25T07:43:45;60101.66;;;-140.67;41.58
2294;BME280;1155;42.644;23.264;2023-03-25T07:46:12;60095.50;;;-140.67;39.79
2294;BME280;1155;42.644;23.264;2023-03-25T07:48:39;60118.03;;;-140.67;39.24
2294;BME280;1155;42.644;23.264;2023-03-25T07:51:07;60118.03;;;-140.67;39.99
2294;BME280;1155;42.644;23.264;2023-03-25T07:53:35;60099.59;;;-140.67;38.31
2294;BME280;1155;42.644;23.264;2023-03-25T07:56:07;60091.41;;;-140.67;37.57
2294;BME280;1155;42.644;23.264;2023-03-25T07:58:34;60087.31;;;-140.67;37.90
2294;BME280;1155;42.644;23.264;2023-03-25T08:01:01;60113.94;;;-140.67;37.17
2294;BME280;1155;42.644;23.264;2023-03-25T08:03:28;60128.28;;;-140.67;37.05
2294;BME280;1155;42.644;23.264;2023-03-25T08:05:59;60093.47;;;-140.67;37.41
2294;BME280;1155;42.644;23.264;2023-03-25T08:08:28;60111.91;;;-140.67;36.16
2294;BME280;1155;42.644;23.264;2023-03-25T08:10:57;60126.22;;;-140.67;36.29
2294;BME280;1155;42.644;23.264;2023-03-25T08:13:24;60154.91;;;-140.67;34.83
2294;BME280;1155;42.644;23.264;2023-03-25T08:15:51;60152.84;;;-140.67;34.22
2294;BME280;1155;42.644;23.264;2023-03-25T08:18:18;60146.72;;;-140.67;32.53
2294;BME280;1155;42.644;23.264;2023-03-25T08:20:46;60126.22;;;-140.67;33.65
2294;BME280;1155;42.644;23.264;2023-03-25T08:23:13;60148.75;;;-140.67;32.63
2294;BME280;1155;42.644;23.264;2023-03-25T08:25:43;60144.66;;;-140.67;32.47
2294;BME280;1155;42.644;23.264;2023-03-25T08:28:11;60159.00;;;-140.67;32.80
2294;BME280;1155;42.644;23.264;2023-03-25T08:30:41;60167.19;;;-140.67;31.25
2294;BME280;1155;42.644;23.264;2023-03-25T08:33:18;60179.47;;;-140.67;32.20
2294;BME280;1155;42.644;23.264;2023-03-25T08:35:46;60171.28;;;-140.67;29.74
2294;BME280;1155;42.644;23.264;2023-03-25T08:38:15;60185.59;;;-140.67;30.58
2294;BME280;1155;42.644;23.264;2023-03-25T08:40:42;60167.19;;;-140.67;29.44
2294;BME280;1155;42.644;23.264;2023-03-25T08:43:11;60154.91;;;-140.67;31.16
2294;BME280;1155;42.644;23.264;2023-03-25T08:45:37;60144.66;;;-140.67;29.75
2294;BME280;1155;42.644;23.264;2023-03-25T08:48:05;60154.91;;;-140.67;30.99
2294;BME280;1155;42.644;23.264;2023-03-25T08:50:32;60187.66;;;-140.67;29.64
2294;BME280;1155;42.644;23.264;2023-03-25T08:52:58;60159.00;;;-140.67;31.44
2294;BME280;1155;42.644;23.264;2023-03-25T08:55:25;60148.75;;;-140.67;31.80
2294;BME280;1155;42.644;23.264;2023-03-25T08:57:52;60134.41;;;-140.67;31.55
2294;BME280;1155;42.644;23.264;2023-03-25T09:00:21;60146.72;;;-140.67;32.41
2294;BME280;1155;42.644;23.264;2023-03-25T09:02:49;60159.00;;;-140.67;32.11
2294;BME280;1155;42.644;23.264;2023-03-25T09:05:16;60167.19;;;-140.67;30.93
2294;BME280;1155;42.644;23.264;2023-03-25T09:07:43;60191.75;;;-140.67;29.72
2294;BME280;1155;42.644;23.264;2023-03-25T09:10:10;60191.75;;;-140.67;27.74
2294;BME280;1155;42.644;23.264;2023-03-25T09:12:37;60181.50;;;-140.67;28.66
2294;BME280;1155;42.644;23.264;2023-03-25T09:15:05;60187.66;;;-140.67;29.29
2294;BME280;1155;42.644;23.264;2023-03-25T09:17:34;60169.22;;;-140.67;28.15
2294;BME280;1155;42.644;23.264;2023-03-25T09:20:01;60218.38;;;-140.67;27.31
2294;BME280;1155;42.644;23.264;2023-03-25T09:22:27;60232.72;;;-140.67;27.44
2294;BME280;1155;42.644;23.264;2023-03-25T09:24:54;60234.75;;;-140.67;26.20
2294;BME280;1155;42.644;23.264;2023-03-25T09:27:21;60214.28;;;-140.67;26.82
2294;BME280;1155;42.644;23.264;2023-03-25T09:29:48;60183.56;;;-140.67;27.81
2294;BME280;1155;42.644;23.264;2023-03-25T09:32:15;60228.63;;;-140.67;28.40
2294;BME280;1155;42.644;23.264;2023-03-25T09:34:45;60195.84;;;-140.67;27.02
2294;BME280;1155;42.644;23.264;2023-03-25T09:37:11;60199.94;;;-140.67;28.03
2294;BME280;1155;42.644;23.264;2023-03-25T09:39:38;60224.53;;;-140.67;26.96
2294;BME280;1155;42.644;23.264;2023-03-25T09:45:09;60212.22;;;-140.67;27.25
2294;BME280;1155;42.644;23.264;2023-03-25T09:47:42;60224.53;;;-140.67;26.53
2294;BME280;1155;42.644;23.264;2023-03-25T09:50:15;60214.28;;;-140.67;27.49
2294;BME280;1155;42.644;23.264;2023-03-25T09:52:50;60195.84;;;-140.67;27.72
2294;BME280;1155;42.644;23.264;2023-03-25T09:55:22;60167.19;;;-140.67;27.61
2294;BME280;1155;42.644;23.264;2023-03-25T09:57:55;60220.41;;;-140.67;28.19
2294;BME280;1155;42.644;23.264;2023-03-25T10:00:25;60220.41;;;-140.67;27.21
2294;BME280;1155;42.644;23.264;2023-03-25T10:02:59;60204.03;;;-140.67;28.24
2294;BME280;1155;42.644;23.264;2023-03-25T10:05:56;60220.41;;;-140.67;26.44
2294;BME280;1155;42.644;23.264;2023-03-25T10:08:33;60210.19;;;-140.67;27.19
2294;BME280;1155;42.644;23.264;2023-03-25T10:11:10;60228.63;;;-140.67;26.62
2294;BME280;1155;42.644;23.264;2023-03-25T10:13:43;60216.31;;;-140.67;25.56
2294;BME280;1155;42.644;23.264;2023-03-25T10:16:20;60195.84;;;-140.67;25.03
2294;BME280;1155;42.644;23.264;2023-03-25T10:18:59;60234.75;;;-140.67;25.15
2294;BME280;1155;42.644;23.264;2023-03-25T10:21:38;60240.91;;;-140.67;25.20
2294;BME280;1155;42.644;23.264;2023-03-25T10:24:15;60212.22;;;-140.67;25.05
2294;BME280;1155;42.644;23.264;2023-03-25T10:26:46;60236.81;;;-140.67;24.36
2294;BME280;1155;42.644;23.264;2023-03-25T10:29:17;60232.72;;;-140.67;24.37
2294;BME280;1155;42.644;23.264;2023-03-25T10:31:52;60283.91;;;-140.67;23.21
2294;BME280;1155;42.644;23.264;2023-03-25T10:34:28;60261.38;;;-140.67;24.18
2294;BME280;1155;42.644;23.264;2023-03-25T10:37:01;60294.13;;;-140.67;23.33
2294;BME280;1155;42.644;23.264;2023-03-25T10:39:31;60298.25;;;-140.67;23.54
2294;BME280;1155;42.644;23.264;2023-03-25T10:42:09;60353.53;;;-140.67;22.00
2294;BME280;1155;42.644;23.264;2023-03-25T10:44:40;60367.88;;;-140.67;22.19
2294;BME280;1155;42.644;23.264;2023-03-25T10:47:11;60333.06;;;-140.67;22.14
2294;BME280;1155;42.644;23.264;2023-03-25T10:49:40;60331.00;;;-140.67;22.25
2294;BME280;1155;42.644;23.264;2023-03-25T10:52:09;60335.09;;;-140.67;22.34
2294;BME280;1155;42.644;23.264;2023-03-25T10:54:40;60337.16;;;-140.67;22.17
2294;BME280;1155;42.644;23.264;2023-03-25T10:57:10;60249.09;;;-140.67;22.22
2294;BME280;1155;42.644;23.264;2023-03-25T10:59:43;60298.25;;;-140.67;23.29
2294;BME280;1155;42.644;23.264;2023-03-25T11:02:18;60302.34;;;-140.67;23.12
2294;BME280;1155;42.644;23.264;2023-03-25T11:04:47;60328.97;;;-140.67;22.55
2294;BME280;1155;42.644;23.264;2023-03-25T11:07:19;60314.63;;;-140.67;22.61
2294;BME280;1155;42.644;23.264;2023-03-25T11:09:46;60335.09;;;-140.67;22.17
2294;BME280;1155;42.644;23.264;2023-03-25T11:12:17;60410.88;;;-140.67;22.01
2294;BME280;1155;42.644;23.264;2023-03-25T11:14:53;60509.16;;;-140.67;19.26
2294;BME280;1155;42.644;23.264;2023-03-25T11:17:21;60543.97;;;-140.67;19.63
2294;BME280;1155;42.644;23.264;2023-03-25T11:19:52;60466.16;;;-140.67;20.14
2294;BME280;1155;42.644;23.264;2023-03-25T11:22:25;60521.47;;;-140.67;18.76
2294;BME280;1155;42.644;23.264;2023-03-25T11:24:58;60494.84;;;-140.67;18.73
2294;BME280;1155;42.644;23.264;2023-03-25T11:27:27;60425.19;;;-140.67;20.15
2294;BME280;1155;42.644;23.264;2023-03-25T11:29:58;60404.72;;;-140.67;20.17
2294;BME280;1155;42.644;23.264;2023-03-25T11:32:32;60464.13;;;-140.67;19.37
2294;BME280;1155;42.644;23.264;2023-03-25T11:35:00;60500.97;;;-140.67;18.84
2294;BME280;1155;42.644;23.264;2023-03-25T11:37:29;60543.97;;;-140.67;18.18
2294;BME280;1155;42.644;23.264;2023-03-25T11:40:03;60636.13;;;-140.67;17.34
2294;BME280;1155;42.644;23.264;2023-03-25T11:42:32;60533.75;;;-140.67;17.41
2294;BME280;1155;42.644;23.264;2023-03-25T11:45:02;60462.06;;;-140.67;18.47
2294;BME280;1155;42.644;23.264;2023-03-25T11:47:31;60470.25;;;-140.67;18.51
2294;BME280;1155;42.644;23.264;2023-03-25T11:49:59;60421.09;;;-140.67;19.06
2294;BME280;1155;42.644;23.264;2023-03-25T11:52:31;60394.50;;;-140.67;19.91
2294;BME280;1155;42.644;23.264;2023-03-25T11:55:01;60367.88;;;-140.67;19.39
2294;BME280;1155;42.644;23.264;2023-03-25T11:57:33;60369.91;;;-140.67;19.48
2294;BME280;1155;42.644;23.264;2023-03-25T12:00:06;60363.78;;;-140.67;19.46
2294;BME280;1155;42.644;23.264;2023-03-25T12:02:42;60367.88;;;-140.67;19.62
2294;BME280;1155;42.644;23.264;2023-03-25T12:05:12;60310.53;;;-140.67;20.25
2294;BME280;1155;42.644;23.264;2023-03-25T12:07:43;60257.28;;;-140.67;21.79
2294;BME280;1155;42.644;23.264;2023-03-25T12:10:16;60212.22;;;-140.67;22.90
2294;BME280;1155;42.644;23.264;2023-03-25T12:12:55;60228.63;;;-140.67;22.82
2294;BME280;1155;42.644;23.264;2023-03-25T12:15:34;60242.94;;;-140.67;23.33
2294;BME280;1155;42.644;23.264;2023-03-25T12:18:15;60236.81;;;-140.67;23.47
2294;BME280;1155;42.644;23.264;2023-03-25T12:20:52;60185.59;;;-140.67;23.65
2294;BME280;1155;42.644;23.264;2023-03-25T12:23:31;60212.22;;;-140.67;23.81
2294;BME280;1155;42.644;23.264;2023-03-25T12:26:07;60224.53;;;-140.67;23.12
2294;BME280;1155;42.644;23.264;2023-03-25T12:29:06;60281.84;;;-140.67;22.22
2294;BME280;1155;42.644;23.264;2023-03-25T12:31:45;60308.47;;;-140.67;21.72
2294;BME280;1155;42.644;23.264;2023-03-25T12:34:26;60285.94;;;-140.67;20.95
2294;BME280;1155;42.644;23.264;2023-03-25T12:37:01;60273.66;;;-140.67;21.15
2294;BME280;1155;42.644;23.264;2023-03-25T12:39:43;60261.38;;;-140.67;21.79
2294;BME280;1155;42.644;23.264;2023-03-25T12:42:28;60253.19;;;-140.67;22.10
2294;BME280;1155;42.644;23.264;2023-03-25T12:45:11;60240.91;;;-140.67;21.79
2294;BME280;1155;42.644;23.264;2023-03-25T12:47:46;60265.47;;;-140.67;21.84
2294;BME280;1155;42.644;23.264;2023-03-25T12:50:25;60290.03;;;-140.67;21.07
2294;BME280;1155;42.644;23.264;2023-03-25T12:52:58;60236.81;;;-140.67;21.87
2294;BME280;1155;42.644;23.264;2023-03-25T12:55:58;60238.84;;;-140.67;22.38
2294;BME280;1155;42.644;23.264;2023-03-25T12:58:56;60234.75;;;-140.67;23.23
2294;BME280;1155;42.644;23.264;2023-03-25T13:01:33;60212.22;;;-140.67;24.36
2294;BME280;1155;42.644;23.264;2023-03-25T13:04:15;60226.56;;;-140.67;23.78
2294;BME280;1155;42.644;23.264;2023-03-25T13:06:57;60204.03;;;-140.67;23.50
2294;BME280;1155;42.644;23.264;2023-03-25T13:09:30;60187.66;;;-140.67;25.30
2294;BME280;1155;42.644;23.264;2023-03-25T13:12:03;60163.09;;;-140.67;25.01